createdAt,value
2022-09-07T00:03:08.837Z,7.75
2022-09-07T00:08:12.489Z,7.65
2022-09-07T00:13:15.316Z,6.05
2022-09-07T00:18:19.805Z,6.03
2022-09-07T00:23:22.645Z,7.18
2022-09-07T00:28:25.474Z,7.72
2022-09-07T00:33:30.176Z,7.00
2022-09-07T00:38:33.093Z,11.40
2022-09-07T00:43:38.419Z,6.55
2022-09-07T00:48:48.641Z,5.50
2022-09-07T00:53:55.512Z,6.20
2022-09-07T00:58:58.795Z,5.57
2022-09-07T01:04:04.565Z,7.25
2022-09-07T01:09:11.083Z,5.53
2022-09-07T01:14:16.807Z,6.75
2022-09-07T01:20:02.760Z,6.15
2022-09-07T01:25:11.634Z,6.40
2022-09-07T01:30:18.988Z,5.80
2022-09-07T01:35:30.072Z,6.05
2022-09-07T01:40:42.602Z,5.60
2022-09-07T01:45:49.336Z,6.40
2022-09-07T01:50:56.369Z,6.85
2022-09-07T01:56:03.964Z,7.80
2022-09-07T02:01:11.392Z,13.18
2022-09-07T02:06:19.777Z,6.28
2022-09-07T02:11:26.328Z,6.40
2022-09-07T02:16:33.440Z,6.53
2022-09-07T02:21:39.684Z,6.38
2022-09-07T02:26:46.947Z,5.80
2022-09-07T02:31:52.089Z,5.53
2022-09-07T02:36:55.531Z,6.30
2022-09-07T02:41:58.551Z,5.07
2022-09-07T02:47:20.182Z,5.32
2022-09-07T02:52:31.931Z,5.65
2022-09-07T02:57:44.150Z,7.22
2022-09-07T03:02:55.675Z,6.25
2022-09-07T03:08:04.481Z,5.75
2022-09-07T03:13:07.321Z,7.22
2022-09-07T03:18:12.438Z,5.50
2022-09-07T03:23:15.460Z,8.13
2022-09-07T03:28:18.520Z,4.88
2022-09-07T03:33:22.765Z,7.32
2022-09-07T03:38:25.667Z,9.60
2022-09-07T03:43:29.536Z,4.90
2022-09-07T03:48:35.635Z,9.10
2022-09-07T03:53:40.516Z,10.93
2022-09-07T03:58:43.654Z,5.55
2022-09-07T04:03:48.254Z,10.52
2022-09-07T04:08:51.084Z,9.13
2022-09-07T04:13:53.967Z,9.52
2022-09-07T04:18:59.311Z,13.10
2022-09-07T04:24:02.339Z,9.30
2022-09-07T04:29:06.896Z,7.80
2022-09-07T04:34:12.089Z,11.65
2022-09-07T04:39:14.994Z,10.27
2022-09-07T04:44:17.831Z,10.98
2022-09-07T04:49:22.054Z,14.02
2022-09-07T04:54:26.423Z,12.05
2022-09-07T04:59:29.314Z,10.85
2022-09-07T05:04:36.107Z,10.90
2022-09-07T05:09:38.945Z,11.00
2022-09-07T05:14:41.776Z,11.23
2022-09-07T05:19:46.010Z,8.32
2022-09-07T05:24:49.072Z,9.82
2022-09-07T05:30:08.231Z,10.93
2022-09-07T05:35:12.861Z,11.85
2022-09-07T05:40:16.501Z,8.40
2022-09-07T05:45:19.528Z,7.10
2022-09-07T05:50:23.831Z,7.05
2022-09-07T05:55:30.724Z,10.43
2022-09-07T06:00:33.965Z,12.50
2022-09-07T06:05:38.157Z,6.13
2022-09-07T06:15:49.224Z,6.70
2022-09-07T06:20:53.416Z,7.82
2022-09-07T06:25:56.401Z,6.90
2022-09-07T06:31:02.883Z,10.73
2022-09-07T06:36:09.526Z,7.47
2022-09-07T06:52:01.884Z,7.18
2022-09-07T06:57:08.618Z,9.07
2022-09-07T07:02:13.429Z,6.65
2022-09-07T07:07:17.662Z,7.75
2022-09-07T07:17:22.414Z,11.20
2022-09-07T07:27:50.469Z,7.50
2022-09-07T07:32:53.508Z,6.15
2022-09-07T07:43:20.622Z,4.72
2022-09-07T07:53:45.167Z,9.95
2022-09-07T07:58:48.990Z,4.32
2022-09-07T08:03:51.988Z,7.05
2022-09-07T08:08:57.073Z,4.38
2022-09-07T08:14:02.214Z,5.82
2022-09-07T08:19:05.707Z,5.80
2022-09-07T08:24:10.304Z,4.82
2022-09-07T08:29:13.219Z,5.30
2022-09-07T08:34:16.300Z,4.80
2022-09-07T08:39:21.327Z,4.32
2022-09-07T08:44:28.795Z,3.47
2022-09-07T08:49:39.737Z,5.15
2022-09-07T08:54:54.686Z,3.58
2022-09-07T09:00:07.169Z,8.30
2022-09-07T09:05:21.777Z,5.55
2022-09-07T09:16:06.077Z,3.90
2022-09-07T09:27:50.598Z,4.10
2022-09-07T09:33:14.642Z,3.42
2022-09-07T09:38:33.107Z,3.03
2022-09-07T09:43:45.763Z,4.57
2022-09-07T09:48:57.864Z,3.08
2022-09-07T10:04:47.138Z,4.20
2022-09-07T10:16:40.118Z,2.05
2022-09-07T10:21:45.953Z,2.38
2022-09-07T10:26:48.837Z,1.83
2022-09-07T10:32:07.037Z,1.45
2022-09-07T10:37:19.526Z,1.95
2022-09-07T10:42:28.986Z,1.60
2022-09-07T10:47:44.361Z,1.73
2022-09-07T10:52:53.297Z,4.78
2022-09-07T10:58:10.540Z,2.90
2022-09-07T11:03:28.125Z,2.10
2022-09-07T11:14:13.797Z,4.18
2022-09-07T11:19:37.658Z,1.80
2022-09-07T11:25:29.192Z,3.55
2022-09-07T11:30:20.856Z,2.13
2022-09-07T11:35:35.109Z,1.77
2022-09-07T11:40:49.331Z,3.78
2022-09-07T11:45:55.425Z,1.85
2022-09-07T11:51:01.576Z,4.28
2022-09-07T11:56:13.292Z,3.80
2022-09-07T12:06:51.050Z,6.88
2022-09-07T12:12:17.576Z,3.70
2022-09-07T12:17:34.374Z,5.75
2022-09-07T12:22:37.868Z,5.47
2022-09-07T12:27:42.075Z,4.95
2022-09-07T12:33:06.663Z,7.50
2022-09-07T12:39:00.572Z,3.63
2022-09-07T12:44:15.486Z,2.92
2022-09-07T12:49:35.686Z,4.38
2022-09-07T12:54:44.623Z,7.43
2022-09-07T13:00:01.267Z,4.10
2022-09-07T13:05:17.897Z,3.70
2022-09-07T13:10:32.548Z,4.25
2022-09-07T13:15:48.591Z,4.72
2022-09-07T13:21:36.042Z,5.38
2022-09-07T13:27:04.298Z,5.03
2022-09-07T13:32:15.841Z,5.35
2022-09-07T13:37:23.002Z,3.97
2022-09-07T13:42:30.478Z,3.90
2022-09-07T13:47:45.911Z,4.05
2022-09-07T13:53:04.216Z,5.72
2022-09-07T13:58:15.665Z,4.35
2022-09-07T14:03:20.313Z,4.88
2022-09-07T14:08:26.330Z,5.50
2022-09-07T14:13:29.089Z,5.38
2022-09-07T14:18:34.133Z,4.90
2022-09-07T14:23:39.781Z,5.38
2022-09-07T14:28:43.014Z,5.47
2022-09-07T14:33:51.299Z,6.32
2022-09-07T14:39:10.056Z,4.07
2022-09-07T14:44:33.985Z,3.17
2022-09-07T14:49:38.556Z,3.30
2022-09-07T14:54:41.450Z,5.35
2022-09-07T14:59:46.412Z,4.00
2022-09-07T15:05:11.657Z,4.60
2022-09-07T15:10:16.806Z,5.85
2022-09-07T15:15:26.292Z,5.53
2022-09-07T15:20:43.138Z,5.20
2022-09-07T15:25:51.852Z,5.32
2022-09-07T15:36:20.450Z,5.47
2022-09-07T15:41:24.640Z,5.80
2022-09-07T15:46:27.863Z,6.00
2022-09-07T16:13:11.174Z,5.68
2022-09-07T16:18:17.218Z,6.22
2022-09-07T16:23:23.055Z,6.00
2022-09-07T16:28:26.645Z,5.30
2022-09-07T16:33:36.651Z,4.65
2022-09-07T16:38:45.624Z,4.63
2022-09-07T16:43:49.397Z,4.47
2022-09-07T16:48:53.692Z,5.72
2022-09-07T16:53:59.310Z,4.18
2022-09-07T16:59:03.921Z,6.05
2022-09-07T17:04:10.924Z,6.07
2022-09-07T17:09:16.012Z,3.20
2022-09-07T17:14:18.927Z,2.97
2022-09-07T17:19:30.099Z,2.65
2022-09-07T17:24:34.613Z,2.80
2022-09-07T17:29:37.795Z,3.25
2022-09-07T17:34:40.665Z,2.63
2022-09-07T17:39:45.128Z,2.28
2022-09-07T17:44:52.903Z,4.47
2022-09-07T17:49:56.081Z,2.50
2022-09-07T17:55:02.179Z,3.00
2022-09-07T18:00:11.159Z,2.70
2022-09-07T18:05:14.576Z,4.00
2022-09-07T18:10:19.278Z,2.78
2022-09-07T18:15:22.203Z,3.45
2022-09-07T18:20:25.878Z,3.22
2022-09-07T18:25:30.469Z,2.35
2022-09-07T18:30:36.721Z,4.10
2022-09-07T18:35:39.551Z,3.20
2022-09-07T18:40:43.691Z,3.58
2022-09-07T18:45:46.510Z,3.35
2022-09-07T18:50:54.357Z,2.60
2022-09-07T18:56:04.136Z,2.40
2022-09-07T19:01:09.027Z,2.10
2022-09-07T19:06:14.048Z,3.83
2022-09-07T19:11:20.627Z,2.83
2022-09-07T19:16:23.795Z,2.42
2022-09-07T19:21:30.187Z,3.97
2022-09-07T19:26:36.625Z,4.28
2022-09-07T19:31:39.551Z,3.92
2022-09-07T19:36:42.447Z,2.75
2022-09-07T19:41:46.748Z,2.65
2022-09-07T19:46:50.057Z,2.95
2022-09-07T19:51:53.004Z,5.65
2022-09-07T19:56:57.168Z,3.50
2022-09-07T20:01:59.979Z,3.45
2022-09-07T20:07:04.101Z,2.88
2022-09-07T20:12:10.140Z,5.65
2022-09-07T20:17:13.317Z,3.50
2022-09-07T20:22:16.203Z,3.47
2022-09-07T20:27:20.865Z,3.85
2022-09-07T20:32:24.487Z,3.80
2022-09-07T20:37:28.106Z,3.83
2022-09-07T20:42:32.461Z,3.65
2022-09-07T20:47:35.427Z,4.32
2022-09-07T20:52:38.215Z,5.57
2022-09-07T20:57:42.385Z,4.97
2022-09-07T21:02:45.338Z,5.28
2022-09-07T21:07:48.178Z,8.02
2022-09-07T21:12:53.228Z,6.30
2022-09-07T21:17:56.064Z,9.40
2022-09-07T21:22:59.052Z,7.47
2022-09-07T21:28:03.581Z,7.75
2022-09-07T21:33:06.525Z,6.72
2022-09-07T21:38:09.440Z,6.68
2022-09-07T21:43:13.628Z,8.40
2022-09-07T21:48:16.421Z,7.07
2022-09-07T21:53:19.289Z,6.90
2022-09-07T21:58:23.505Z,7.10
2022-09-07T22:03:26.535Z,6.38
2022-09-07T22:08:29.530Z,5.60
2022-09-07T22:13:34.164Z,6.07
2022-09-07T22:18:38.036Z,6.50
2022-09-07T22:23:42.649Z,5.88
2022-09-07T22:28:46.852Z,5.82
2022-09-07T22:33:51.034Z,6.60
2022-09-07T22:38:55.737Z,6.68
2022-09-07T22:44:00.561Z,6.13
2022-09-07T22:49:03.818Z,6.30
2022-09-07T22:54:07.126Z,8.23
2022-09-07T22:59:12.954Z,6.30
2022-09-07T23:04:15.870Z,7.82
2022-09-07T23:09:20.752Z,6.32
2022-09-07T23:14:24.882Z,7.85
2022-09-07T23:19:27.783Z,7.45
2022-09-07T23:24:31.349Z,7.25
2022-09-07T23:29:35.961Z,6.18
2022-09-07T23:34:38.699Z,9.27
2022-09-07T23:39:41.885Z,7.38
2022-09-07T23:44:48.378Z,7.70
2022-09-07T23:49:51.155Z,10.38
2022-09-07T23:54:53.885Z,7.55
2022-09-07T23:59:58.042Z,7.72
